sensor_id;sensor_type;location;lat;lon;timestamp;P1;durP1;ratioP1;P2;durP2;ratioP2
69894;SDS011;57172;52.034;5.090;2022-12-18T00:01:23;56.45;;;17.60;;
69894;SDS011;57172;52.034;5.090;2022-12-18T00:03:53;61.92;;;18.55;;
69894;SDS011;57172;52.034;5.090;2022-12-18T00:06:23;78.95;;;18.77;;
69894;SDS011;57172;52.034;5.090;2022-12-18T00:08:51;55.23;;;18.17;;
69894;SDS011;57172;52.034;5.090;2022-12-18T00:11:19;47.63;;;15.02;;
69894;SDS011;57172;52.034;5.090;2022-12-18T00:13:47;44.92;;;14.65;;
69894;SDS011;57172;52.034;5.090;2022-12-18T00:16:15;62.20;;;19.60;;
69894;SDS011;57172;52.034;5.090;2022-12-18T00:18:50;50.45;;;17.58;;
69894;SDS011;57172;52.034;5.090;2022-12-18T00:21:19;56.97;;;18.47;;
69894;SDS011;57172;52.034;5.090;2022-12-18T00:23:47;46.97;;;16.10;;
69894;SDS011;57172;52.034;5.090;2022-12-18T00:26:16;56.85;;;19.15;;
69894;SDS011;57172;52.034;5.090;2022-12-18T00:28:45;59.72;;;18.83;;
69894;SDS011;57172;52.034;5.090;2022-12-18T00:31:13;51.53;;;18.27;;
69894;SDS011;57172;52.034;5.090;2022-12-18T00:33:45;58.03;;;19.00;;
69894;SDS011;57172;52.034;5.090;2022-12-18T00:36:16;61.97;;;18.63;;
69894;SDS011;57172;52.034;5.090;2022-12-18T00:38:45;48.30;;;17.48;;
69894;SDS011;57172;52.034;5.090;2022-12-18T00:41:16;57.33;;;18.90;;
69894;SDS011;57172;52.034;5.090;2022-12-18T00:44:05;59.00;;;19.30;;
69894;SDS011;57172;52.034;5.090;2022-12-18T00:46:33;63.97;;;18.80;;
69894;SDS011;57172;52.034;5.090;2022-12-18T00:49:00;59.05;;;19.38;;
69894;SDS011;57172;52.034;5.090;2022-12-18T00:51:27;73.72;;;20.75;;
69894;SDS011;57172;52.034;5.090;2022-12-18T00:53:54;67.90;;;20.50;;
69894;SDS011;57172;52.034;5.090;2022-12-18T00:56:21;60.78;;;19.63;;
69894;SDS011;57172;52.034;5.090;2022-12-18T00:58:48;70.10;;;18.50;;
69894;SDS011;57172;52.034;5.090;2022-12-18T01:01:16;64.45;;;17.17;;
69894;SDS011;57172;52.034;5.090;2022-12-18T01:03:43;50.63;;;15.60;;
69894;SDS011;57172;52.034;5.090;2022-12-18T01:06:11;53.95;;;17.92;;
69894;SDS011;57172;52.034;5.090;2022-12-18T01:08:40;61.22;;;19.15;;
69894;SDS011;57172;52.034;5.090;2022-12-18T01:11:16;58.97;;;18.23;;
69894;SDS011;57172;52.034;5.090;2022-12-18T01:13:44;56.92;;;18.58;;
69894;SDS011;57172;52.034;5.090;2022-12-18T01:16:12;64.90;;;18.42;;
69894;SDS011;57172;52.034;5.090;2022-12-18T01:18:41;54.08;;;16.52;;
69894;SDS011;57172;52.034;5.090;2022-12-18T01:21:08;57.03;;;17.60;;
69894;SDS011;57172;52.034;5.090;2022-12-18T01:23:37;52.70;;;15.57;;
69894;SDS011;57172;52.034;5.090;2022-12-18T01:26:09;53.83;;;17.58;;
69894;SDS011;57172;52.034;5.090;2022-12-18T01:28:39;63.20;;;14.95;;
69894;SDS011;57172;52.034;5.090;2022-12-18T01:31:19;56.25;;;18.58;;
69894;SDS011;57172;52.034;5.090;2022-12-18T01:33:49;65.05;;;18.35;;
69894;SDS011;57172;52.034;5.090;2022-12-18T01:36:19;59.73;;;18.70;;
69894;SDS011;57172;52.034;5.090;2022-12-18T01:38:46;63.78;;;19.30;;
69894;SDS011;57172;52.034;5.090;2022-12-18T01:41:14;53.88;;;17.73;;
69894;SDS011;57172;52.034;5.090;2022-12-18T01:43:44;57.25;;;18.27;;
69894;SDS011;57172;52.034;5.090;2022-12-18T01:46:17;51.53;;;18.63;;
69894;SDS011;57172;52.034;5.090;2022-12-18T01:48:46;61.10;;;19.07;;
69894;SDS011;57172;52.034;5.090;2022-12-18T01:51:15;56.60;;;18.42;;
69894;SDS011;57172;52.034;5.090;2022-12-18T01:53:43;59.60;;;18.50;;
69894;SDS011;57172;52.034;5.090;2022-12-18T01:56:12;54.65;;;17.40;;
69894;SDS011;57172;52.034;5.090;2022-12-18T02:01:13;48.27;;;17.20;;
69894;SDS011;57172;52.034;5.090;2022-12-18T02:03:41;52.45;;;17.67;;
69894;SDS011;57172;52.034;5.090;2022-12-18T02:06:16;56.03;;;19.10;;
69894;SDS011;57172;52.034;5.090;2022-12-18T02:08:57;56.40;;;16.58;;
69894;SDS011;57172;52.034;5.090;2022-12-18T02:20:10;56.83;;;19.05;;
69894;SDS011;57172;52.034;5.090;2022-12-18T02:28:13;60.27;;;19.97;;
69894;SDS011;57172;52.034;5.090;2022-12-18T02:30:46;58.83;;;19.88;;
69894;SDS011;57172;52.034;5.090;2022-12-18T02:33:15;56.22;;;19.38;;
69894;SDS011;57172;52.034;5.090;2022-12-18T02:35:43;64.43;;;20.48;;
69894;SDS011;57172;52.034;5.090;2022-12-18T02:38:32;64.20;;;20.08;;
69894;SDS011;57172;52.034;5.090;2022-12-18T02:41:07;63.33;;;19.13;;
69894;SDS011;57172;52.034;5.090;2022-12-18T02:43:35;53.92;;;18.40;;
69894;SDS011;57172;52.034;5.090;2022-12-18T02:46:20;62.35;;;19.27;;
69894;SDS011;57172;52.034;5.090;2022-12-18T02:49:16;60.92;;;19.42;;
69894;SDS011;57172;52.034;5.090;2022-12-18T02:57:40;60.28;;;18.30;;
69894;SDS011;57172;52.034;5.090;2022-12-18T03:03:06;57.30;;;18.50;;
69894;SDS011;57172;52.034;5.090;2022-12-18T03:05:50;62.83;;;19.65;;
69894;SDS011;57172;52.034;5.090;2022-12-18T03:08:22;60.33;;;17.97;;
69894;SDS011;57172;52.034;5.090;2022-12-18T03:11:06;61.33;;;19.42;;
69894;SDS011;57172;52.034;5.090;2022-12-18T03:13:37;58.08;;;18.40;;
69894;SDS011;57172;52.034;5.090;2022-12-18T03:16:16;56.13;;;18.10;;
69894;SDS011;57172;52.034;5.090;2022-12-18T03:18:52;56.20;;;19.15;;
69894;SDS011;57172;52.034;5.090;2022-12-18T03:21:32;60.50;;;19.27;;
69894;SDS011;57172;52.034;5.090;2022-12-18T03:24:09;55.08;;;19.80;;
69894;SDS011;57172;52.034;5.090;2022-12-18T03:26:40;62.05;;;19.20;;
69894;SDS011;57172;52.034;5.090;2022-12-18T03:29:13;58.10;;;19.23;;
69894;SDS011;57172;52.034;5.090;2022-12-18T03:31:47;59.90;;;18.58;;
69894;SDS011;57172;52.034;5.090;2022-12-18T03:34:19;51.37;;;18.20;;
69894;SDS011;57172;52.034;5.090;2022-12-18T03:36:52;56.38;;;18.60;;
69894;SDS011;57172;52.034;5.090;2022-12-18T03:39:21;58.13;;;19.67;;
69894;SDS011;57172;52.034;5.090;2022-12-18T03:44:42;46.53;;;17.38;;
69894;SDS011;57172;52.034;5.090;2022-12-18T03:47:23;48.83;;;17.83;;
69894;SDS011;57172;52.034;5.090;2022-12-18T03:49:58;50.15;;;19.13;;
69894;SDS011;57172;52.034;5.090;2022-12-18T03:52:52;51.22;;;18.52;;
69894;SDS011;57172;52.034;5.090;2022-12-18T03:55:47;51.95;;;18.02;;
69894;SDS011;57172;52.034;5.090;2022-12-18T03:58:17;52.88;;;18.95;;
69894;SDS011;57172;52.034;5.090;2022-12-18T04:00:55;51.83;;;18.73;;
69894;SDS011;57172;52.034;5.090;2022-12-18T04:03:27;51.00;;;19.23;;
69894;SDS011;57172;52.034;5.090;2022-12-18T04:05:56;49.80;;;18.88;;
69894;SDS011;57172;52.034;5.090;2022-12-18T04:08:26;54.03;;;19.88;;
69894;SDS011;57172;52.034;5.090;2022-12-18T04:11:01;60.42;;;20.05;;
69894;SDS011;57172;52.034;5.090;2022-12-18T04:13:32;54.40;;;19.87;;
69894;SDS011;57172;52.034;5.090;2022-12-18T04:16:09;42.83;;;15.88;;
69894;SDS011;57172;52.034;5.090;2022-12-18T04:18:39;56.97;;;20.27;;
69894;SDS011;57172;52.034;5.090;2022-12-18T04:21:07;49.60;;;18.23;;
69894;SDS011;57172;52.034;5.090;2022-12-18T04:23:35;53.88;;;20.48;;
69894;SDS011;57172;52.034;5.090;2022-12-18T04:26:02;55.00;;;21.07;;
69894;SDS011;57172;52.034;5.090;2022-12-18T04:29:01;54.22;;;21.65;;
69894;SDS011;57172;52.034;5.090;2022-12-18T04:31:29;57.53;;;21.13;;
69894;SDS011;57172;52.034;5.090;2022-12-18T04:33:56;56.25;;;21.90;;
69894;SDS011;57172;52.034;5.090;2022-12-18T04:36:24;48.08;;;19.08;;
69894;SDS011;57172;52.034;5.090;2022-12-18T04:38:51;49.03;;;17.83;;
69894;SDS011;57172;52.034;5.090;2022-12-18T04:41:19;56.38;;;21.40;;
69894;SDS011;57172;52.034;5.090;2022-12-18T04:43:47;57.47;;;20.77;;
69894;SDS011;57172;52.034;5.090;2022-12-18T04:46:14;58.42;;;21.77;;
69894;SDS011;57172;52.034;5.090;2022-12-18T04:48:41;55.05;;;21.50;;
69894;SDS011;57172;52.034;5.090;2022-12-18T04:51:08;52.80;;;20.50;;
69894;SDS011;57172;52.034;5.090;2022-12-18T04:53:35;54.67;;;22.20;;
69894;SDS011;57172;52.034;5.090;2022-12-18T04:56:07;54.58;;;21.83;;
69894;SDS011;57172;52.034;5.090;2022-12-18T04:58:36;51.58;;;21.45;;
69894;SDS011;57172;52.034;5.090;2022-12-18T05:01:04;53.45;;;21.08;;
69894;SDS011;57172;52.034;5.090;2022-12-18T05:03:31;57.37;;;21.77;;
69894;SDS011;57172;52.034;5.090;2022-12-18T05:06:00;55.40;;;19.98;;
69894;SDS011;57172;52.034;5.090;2022-12-18T05:08:27;53.97;;;19.48;;
69894;SDS011;57172;52.034;5.090;2022-12-18T05:13:43;48.35;;;19.38;;
69894;SDS011;57172;52.034;5.090;2022-12-18T05:16:10;44.17;;;14.90;;
69894;SDS011;57172;52.034;5.090;2022-12-18T05:18:38;47.83;;;19.13;;
69894;SDS011;57172;52.034;5.090;2022-12-18T05:21:05;53.00;;;19.35;;
69894;SDS011;57172;52.034;5.090;2022-12-18T05:23:32;46.30;;;18.50;;
69894;SDS011;57172;52.034;5.090;2022-12-18T05:26:00;39.45;;;15.35;;
69894;SDS011;57172;52.034;5.090;2022-12-18T05:28:29;40.03;;;16.50;;
69894;SDS011;57172;52.034;5.090;2022-12-18T05:30:59;45.67;;;18.38;;
69894;SDS011;57172;52.034;5.090;2022-12-18T05:33:28;43.60;;;16.65;;
69894;SDS011;57172;52.034;5.090;2022-12-18T05:35:57;47.17;;;17.98;;
69894;SDS011;57172;52.034;5.090;2022-12-18T05:38:26;40.00;;;16.80;;
69894;SDS011;57172;52.034;5.090;2022-12-18T05:40:54;46.43;;;16.93;;
69894;SDS011;57172;52.034;5.090;2022-12-18T05:43:22;44.47;;;16.80;;
69894;SDS011;57172;52.034;5.090;2022-12-18T05:45:49;42.58;;;16.58;;
69894;SDS011;57172;52.034;5.090;2022-12-18T05:48:17;41.20;;;15.23;;
69894;SDS011;57172;52.034;5.090;2022-12-18T05:50:45;39.25;;;15.93;;
69894;SDS011;57172;52.034;5.090;2022-12-18T05:53:17;40.67;;;15.00;;
69894;SDS011;57172;52.034;5.090;2022-12-18T05:55:45;34.55;;;13.77;;
69894;SDS011;57172;52.034;5.090;2022-12-18T05:58:13;36.90;;;14.57;;
69894;SDS011;57172;52.034;5.090;2022-12-18T06:00:41;36.60;;;14.25;;
69894;SDS011;57172;52.034;5.090;2022-12-18T06:03:10;35.65;;;14.55;;
69894;SDS011;57172;52.034;5.090;2022-12-18T06:05:39;34.30;;;13.17;;
69894;SDS011;57172;52.034;5.090;2022-12-18T06:08:08;30.98;;;12.25;;
69894;SDS011;57172;52.034;5.090;2022-12-18T06:10:35;31.65;;;13.65;;
69894;SDS011;57172;52.034;5.090;2022-12-18T06:13:03;26.75;;;10.88;;
69894;SDS011;57172;52.034;5.090;2022-12-18T06:15:31;31.23;;;12.98;;
69894;SDS011;57172;52.034;5.090;2022-12-18T06:17:58;33.77;;;13.67;;
69894;SDS011;57172;52.034;5.090;2022-12-18T06:20:26;27.98;;;12.75;;
69894;SDS011;57172;52.034;5.090;2022-12-18T06:22:59;29.00;;;12.55;;
69894;SDS011;57172;52.034;5.090;2022-12-18T06:25:26;30.70;;;12.60;;
69894;SDS011;57172;52.034;5.090;2022-12-18T06:27:53;31.00;;;13.27;;
69894;SDS011;57172;52.034;5.090;2022-12-18T06:30:20;32.03;;;12.50;;
69894;SDS011;57172;52.034;5.090;2022-12-18T06:32:50;29.75;;;12.45;;
69894;SDS011;57172;52.034;5.090;2022-12-18T06:35:22;32.97;;;13.02;;
69894;SDS011;57172;52.034;5.090;2022-12-18T06:37:49;28.58;;;11.27;;
69894;SDS011;57172;52.034;5.090;2022-12-18T06:40:17;26.95;;;12.32;;
69894;SDS011;57172;52.034;5.090;2022-12-18T06:42:44;25.93;;;9.80;;
69894;SDS011;57172;52.034;5.090;2022-12-18T06:45:11;28.08;;;11.85;;
69894;SDS011;57172;52.034;5.090;2022-12-18T06:47:38;22.98;;;10.57;;
69894;SDS011;57172;52.034;5.090;2022-12-18T06:50:05;27.73;;;12.38;;
69894;SDS011;57172;52.034;5.090;2022-12-18T06:52:32;24.77;;;12.20;;
69894;SDS011;57172;52.034;5.090;2022-12-18T06:54:59;26.63;;;11.80;;
69894;SDS011;57172;52.034;5.090;2022-12-18T06:57:27;31.63;;;12.30;;
69894;SDS011;57172;52.034;5.090;2022-12-18T06:59:54;28.17;;;11.05;;
69894;SDS011;57172;52.034;5.090;2022-12-18T07:02:21;28.33;;;11.68;;
69894;SDS011;57172;52.034;5.090;2022-12-18T07:04:48;30.27;;;12.43;;
69894;SDS011;57172;52.034;5.090;2022-12-18T07:07:15;28.63;;;12.23;;
69894;SDS011;57172;52.034;5.090;2022-12-18T07:09:45;28.80;;;12.15;;
69894;SDS011;57172;52.034;5.090;2022-12-18T07:12:17;28.30;;;11.80;;
69894;SDS011;57172;52.034;5.090;2022-12-18T07:14:44;27.73;;;10.98;;
69894;SDS011;57172;52.034;5.090;2022-12-18T07:17:11;27.80;;;11.93;;
69894;SDS011;57172;52.034;5.090;2022-12-18T07:19:38;29.27;;;12.07;;
69894;SDS011;57172;52.034;5.090;2022-12-18T07:22:05;29.00;;;12.55;;
69894;SDS011;57172;52.034;5.090;2022-12-18T07:24:32;27.35;;;11.15;;
69894;SDS011;57172;52.034;5.090;2022-12-18T07:27:01;31.35;;;12.05;;
69894;SDS011;57172;52.034;5.090;2022-12-18T07:29:28;31.15;;;12.25;;
69894;SDS011;57172;52.034;5.090;2022-12-18T07:31:55;30.03;;;12.07;;
69894;SDS011;57172;52.034;5.090;2022-12-18T07:34:22;32.45;;;13.00;;
69894;SDS011;57172;52.034;5.090;2022-12-18T07:36:48;31.50;;;13.00;;
69894;SDS011;57172;52.034;5.090;2022-12-18T07:39:15;30.25;;;12.95;;
69894;SDS011;57172;52.034;5.090;2022-12-18T07:41:42;30.02;;;12.70;;
69894;SDS011;57172;52.034;5.090;2022-12-18T07:44:14;27.30;;;11.37;;
69894;SDS011;57172;52.034;5.090;2022-12-18T07:46:41;30.70;;;12.68;;
69894;SDS011;57172;52.034;5.090;2022-12-18T07:49:08;27.35;;;11.32;;
69894;SDS011;57172;52.034;5.090;2022-12-18T07:51:35;24.60;;;10.38;;
69894;SDS011;57172;52.034;5.090;2022-12-18T07:54:02;30.60;;;12.45;;
69894;SDS011;57172;52.034;5.090;2022-12-18T07:56:29;26.87;;;11.77;;
69894;SDS011;57172;52.034;5.090;2022-12-18T07:58:57;24.17;;;9.98;;
69894;SDS011;57172;52.034;5.090;2022-12-18T08:01:24;27.63;;;12.10;;
69894;SDS011;57172;52.034;5.090;2022-12-18T08:03:52;24.65;;;10.55;;
69894;SDS011;57172;52.034;5.090;2022-12-18T08:06:19;26.40;;;11.70;;
69894;SDS011;57172;52.034;5.090;2022-12-18T08:08:50;30.47;;;12.97;;
69894;SDS011;57172;52.034;5.090;2022-12-18T08:11:18;28.60;;;11.43;;
69894;SDS011;57172;52.034;5.090;2022-12-18T08:13:46;27.85;;;10.95;;
69894;SDS011;57172;52.034;5.090;2022-12-18T08:16:14;29.50;;;13.15;;
69894;SDS011;57172;52.034;5.090;2022-12-18T08:18:41;33.50;;;13.05;;
69894;SDS011;57172;52.034;5.090;2022-12-18T08:21:12;29.63;;;12.83;;
69894;SDS011;57172;52.034;5.090;2022-12-18T08:23:46;31.70;;;14.25;;
69894;SDS011;57172;52.034;5.090;2022-12-18T08:26:14;28.02;;;12.35;;
69894;SDS011;57172;52.034;5.090;2022-12-18T08:28:41;30.85;;;12.55;;
69894;SDS011;57172;52.034;5.090;2022-12-18T08:31:09;29.92;;;12.25;;
69894;SDS011;57172;52.034;5.090;2022-12-18T08:33:36;31.23;;;12.20;;
69894;SDS011;57172;52.034;5.090;2022-12-18T08:36:06;28.85;;;12.63;;
69894;SDS011;57172;52.034;5.090;2022-12-18T08:38:34;26.05;;;11.07;;
69894;SDS011;57172;52.034;5.090;2022-12-18T08:41:06;27.95;;;12.40;;
69894;SDS011;57172;52.034;5.090;2022-12-18T08:43:36;27.13;;;11.77;;
69894;SDS011;57172;52.034;5.090;2022-12-18T08:46:22;28.13;;;11.57;;
69894;SDS011;57172;52.034;5.090;2022-12-18T08:48:51;30.45;;;12.18;;
69894;SDS011;57172;52.034;5.090;2022-12-18T08:51:19;28.98;;;12.48;;
69894;SDS011;57172;52.034;5.090;2022-12-18T08:53:46;30.23;;;12.38;;
69894;SDS011;57172;52.034;5.090;2022-12-18T08:56:14;27.63;;;11.63;;
69894;SDS011;57172;52.034;5.090;2022-12-18T08:58:41;26.53;;;11.77;;
69894;SDS011;57172;52.034;5.090;2022-12-18T09:01:09;29.65;;;12.90;;
69894;SDS011;57172;52.034;5.090;2022-12-18T09:03:38;26.73;;;13.02;;
69894;SDS011;57172;52.034;5.090;2022-12-18T09:06:06;31.50;;;12.85;;
69894;SDS011;57172;52.034;5.090;2022-12-18T09:08:33;27.20;;;11.52;;
69894;SDS011;57172;52.034;5.090;2022-12-18T09:11:00;31.03;;;12.90;;
69894;SDS011;57172;52.034;5.090;2022-12-18T09:13:27;26.88;;;11.68;;
69894;SDS011;57172;52.034;5.090;2022-12-18T09:15:55;30.77;;;13.45;;
69894;SDS011;57172;52.034;5.090;2022-12-18T09:18:22;25.52;;;11.75;;
69894;SDS011;57172;52.034;5.090;2022-12-18T09:20:50;24.83;;;11.23;;
69894;SDS011;57172;52.034;5.090;2022-12-18T09:23:19;24.47;;;11.60;;
69894;SDS011;57172;52.034;5.090;2022-12-18T09:25:47;23.27;;;10.00;;
69894;SDS011;57172;52.034;5.090;2022-12-18T09:28:15;23.95;;;10.48;;
69894;SDS011;57172;52.034;5.090;2022-12-18T09:30:44;26.60;;;12.27;;
69894;SDS011;57172;52.034;5.090;2022-12-18T09:33:13;28.70;;;13.35;;
69894;SDS011;57172;52.034;5.090;2022-12-18T09:35:42;23.27;;;10.97;;
69894;SDS011;57172;52.034;5.090;2022-12-18T09:38:11;30.35;;;12.65;;
69894;SDS011;57172;52.034;5.090;2022-12-18T09:40:42;27.63;;;11.48;;
69894;SDS011;57172;52.034;5.090;2022-12-18T09:43:14;28.73;;;12.80;;
69894;SDS011;57172;52.034;5.090;2022-12-18T09:45:45;31.02;;;13.48;;
69894;SDS011;57172;52.034;5.090;2022-12-18T09:48:25;27.33;;;12.87;;
69894;SDS011;57172;52.034;5.090;2022-12-18T09:50:58;27.27;;;12.20;;
69894;SDS011;57172;52.034;5.090;2022-12-18T09:53:31;28.38;;;12.13;;
69894;SDS011;57172;52.034;5.090;2022-12-18T09:56:01;29.80;;;13.02;;
69894;SDS011;57172;52.034;5.090;2022-12-18T10:01:10;25.17;;;11.93;;
69894;SDS011;57172;52.034;5.090;2022-12-18T10:03:43;22.40;;;10.30;;
69894;SDS011;57172;52.034;5.090;2022-12-18T10:06:15;24.75;;;12.15;;
69894;SDS011;57172;52.034;5.090;2022-12-18T10:12:05;27.00;;;12.38;;
69894;SDS011;57172;52.034;5.090;2022-12-18T10:14:36;27.60;;;13.00;;
69894;SDS011;57172;52.034;5.090;2022-12-18T10:20:46;25.00;;;10.82;;
69894;SDS011;57172;52.034;5.090;2022-12-18T10:23:20;30.08;;;13.02;;
69894;SDS011;57172;52.034;5.090;2022-12-18T10:26:06;28.50;;;13.07;;
69894;SDS011;57172;52.034;5.090;2022-12-18T10:28:36;28.07;;;12.33;;
69894;SDS011;57172;52.034;5.090;2022-12-18T10:31:14;26.00;;;12.70;;
69894;SDS011;57172;52.034;5.090;2022-12-18T10:33:43;26.33;;;11.80;;
69894;SDS011;57172;52.034;5.090;2022-12-18T10:36:10;23.75;;;12.27;;
69894;SDS011;57172;52.034;5.090;2022-12-18T10:38:38;23.67;;;12.10;;
69894;SDS011;57172;52.034;5.090;2022-12-18T10:41:08;23.13;;;11.27;;
69894;SDS011;57172;52.034;5.090;2022-12-18T10:46:46;27.50;;;12.23;;
69894;SDS011;57172;52.034;5.090;2022-12-18T10:49:19;22.55;;;10.70;;
69894;SDS011;57172;52.034;5.090;2022-12-18T10:51:49;23.65;;;11.48;;
69894;SDS011;57172;52.034;5.090;2022-12-18T10:54:18;26.97;;;11.93;;
69894;SDS011;57172;52.034;5.090;2022-12-18T10:56:48;24.45;;;11.52;;
69894;SDS011;57172;52.034;5.090;2022-12-18T10:59:16;27.42;;;12.20;;
69894;SDS011;57172;52.034;5.090;2022-12-18T11:01:45;24.10;;;11.02;;
69894;SDS011;57172;52.034;5.090;2022-12-18T11:04:25;25.88;;;10.75;;
69894;SDS011;57172;52.034;5.090;2022-12-18T11:07:01;23.10;;;10.67;;
69894;SDS011;57172;52.034;5.090;2022-12-18T11:09:30;23.15;;;12.10;;
69894;SDS011;57172;52.034;5.090;2022-12-18T11:12:04;27.60;;;11.68;;
69894;SDS011;57172;52.034;5.090;2022-12-18T11:14:44;26.65;;;11.73;;
69894;SDS011;57172;52.034;5.090;2022-12-18T11:17:33;22.23;;;10.20;;
69894;SDS011;57172;52.034;5.090;2022-12-18T11:20:03;25.00;;;11.87;;
69894;SDS011;57172;52.034;5.090;2022-12-18T11:22:33;27.30;;;12.52;;
69894;SDS011;57172;52.034;5.090;2022-12-18T11:25:04;25.23;;;12.27;;
69894;SDS011;57172;52.034;5.090;2022-12-18T11:28:03;25.25;;;11.65;;
69894;SDS011;57172;52.034;5.090;2022-12-18T11:30:33;23.92;;;10.55;;
69894;SDS011;57172;52.034;5.090;2022-12-18T11:33:13;25.37;;;11.77;;
69894;SDS011;57172;52.034;5.090;2022-12-18T11:35:47;28.02;;;12.30;;
69894;SDS011;57172;52.034;5.090;2022-12-18T11:38:18;25.17;;;11.52;;
69894;SDS011;57172;52.034;5.090;2022-12-18T11:40:55;24.10;;;10.32;;
69894;SDS011;57172;52.034;5.090;2022-12-18T11:43:29;21.88;;;10.27;;
69894;SDS011;57172;52.034;5.090;2022-12-18T11:46:16;26.63;;;12.13;;
69894;SDS011;57172;52.034;5.090;2022-12-18T11:48:55;25.52;;;11.60;;
69894;SDS011;57172;52.034;5.090;2022-12-18T11:51:38;24.00;;;11.40;;
69894;SDS011;57172;52.034;5.090;2022-12-18T11:54:13;25.15;;;12.07;;
69894;SDS011;57172;52.034;5.090;2022-12-18T11:56:51;24.05;;;10.80;;
69894;SDS011;57172;52.034;5.090;2022-12-18T11:59:26;25.90;;;12.40;;
69894;SDS011;57172;52.034;5.090;2022-12-18T12:07:51;28.55;;;12.10;;
69894;SDS011;57172;52.034;5.090;2022-12-18T12:11:28;24.60;;;10.90;;
69894;SDS011;57172;52.034;5.090;2022-12-18T12:14:01;20.33;;;9.47;;
69894;SDS011;57172;52.034;5.090;2022-12-18T12:16:36;24.85;;;10.93;;
69894;SDS011;57172;52.034;5.090;2022-12-18T12:19:15;24.90;;;11.50;;
69894;SDS011;57172;52.034;5.090;2022-12-18T12:25:14;26.95;;;12.23;;
69894;SDS011;57172;52.034;5.090;2022-12-18T12:28:09;24.40;;;10.60;;
69894;SDS011;57172;52.034;5.090;2022-12-18T12:39:08;26.58;;;12.35;;
69894;SDS011;57172;52.034;5.090;2022-12-18T12:41:41;25.27;;;10.80;;
69894;SDS011;57172;52.034;5.090;2022-12-18T12:44:30;20.83;;;9.70;;
69894;SDS011;57172;52.034;5.090;2022-12-18T12:47:04;33.00;;;11.80;;
69894;SDS011;57172;52.034;5.090;2022-12-18T12:49:42;25.52;;;11.93;;
69894;SDS011;57172;52.034;5.090;2022-12-18T12:52:16;24.90;;;12.70;;
69894;SDS011;57172;52.034;5.090;2022-12-18T12:54:52;21.97;;;10.07;;
69894;SDS011;57172;52.034;5.090;2022-12-18T13:02:54;22.58;;;10.98;;
69894;SDS011;57172;52.034;5.090;2022-12-18T13:05:24;23.48;;;10.88;;
69894;SDS011;57172;52.034;5.090;2022-12-18T13:08:02;24.40;;;11.47;;
69894;SDS011;57172;52.034;5.090;2022-12-18T13:10:39;22.20;;;11.40;;
69894;SDS011;57172;52.034;5.090;2022-12-18T13:13:08;23.90;;;11.63;;
69894;SDS011;57172;52.034;5.090;2022-12-18T13:16:03;25.02;;;11.77;;
69894;SDS011;57172;52.034;5.090;2022-12-18T13:18:32;24.13;;;10.98;;
69894;SDS011;57172;52.034;5.090;2022-12-18T13:23:33;24.25;;;11.25;;
69894;SDS011;57172;52.034;5.090;2022-12-18T13:33:44;24.57;;;11.70;;
69894;SDS011;57172;52.034;5.090;2022-12-18T13:36:33;25.25;;;11.98;;
69894;SDS011;57172;52.034;5.090;2022-12-18T13:42:36;23.13;;;11.40;;
69894;SDS011;57172;52.034;5.090;2022-12-18T13:48:24;27.77;;;11.80;;
69894;SDS011;57172;52.034;5.090;2022-12-18T13:50:55;26.08;;;11.25;;
69894;SDS011;57172;52.034;5.090;2022-12-18T13:53:42;27.77;;;12.70;;
69894;SDS011;57172;52.034;5.090;2022-12-18T13:56:24;23.02;;;10.05;;
69894;SDS011;57172;52.034;5.090;2022-12-18T13:59:14;29.25;;;11.50;;
69894;SDS011;57172;52.034;5.090;2022-12-18T14:04:25;26.27;;;12.25;;
69894;SDS011;57172;52.034;5.090;2022-12-18T14:07:13;24.60;;;12.23;;
69894;SDS011;57172;52.034;5.090;2022-12-18T14:09:49;27.67;;;12.48;;
69894;SDS011;57172;52.034;5.090;2022-12-18T14:12:37;24.17;;;12.15;;
69894;SDS011;57172;52.034;5.090;2022-12-18T14:15:31;26.53;;;11.87;;
69894;SDS011;57172;52.034;5.090;2022-12-18T14:20:54;25.85;;;12.35;;
69894;SDS011;57172;52.034;5.090;2022-12-18T14:23:31;24.88;;;11.00;;
69894;SDS011;57172;52.034;5.090;2022-12-18T14:26:20;26.65;;;11.98;;
69894;SDS011;57172;52.034;5.090;2022-12-18T14:28:57;24.53;;;11.00;;
69894;SDS011;57172;52.034;5.090;2022-12-18T14:31:28;25.65;;;11.50;;
69894;SDS011;57172;52.034;5.090;2022-12-18T14:33:56;26.92;;;11.68;;
69894;SDS011;57172;52.034;5.090;2022-12-18T14:36:24;25.33;;;11.70;;
69894;SDS011;57172;52.034;5.090;2022-12-18T14:38:53;21.67;;;10.35;;
69894;SDS011;57172;52.034;5.090;2022-12-18T14:41:22;25.80;;;11.73;;
69894;SDS011;57172;52.034;5.090;2022-12-18T14:43:50;26.23;;;11.63;;
69894;SDS011;57172;52.034;5.090;2022-12-18T14:48:56;24.70;;;11.88;;
69894;SDS011;57172;52.034;5.090;2022-12-18T14:51:25;26.48;;;12.10;;
69894;SDS011;57172;52.034;5.090;2022-12-18T14:53:55;23.87;;;10.77;;
69894;SDS011;57172;52.034;5.090;2022-12-18T14:56:28;24.48;;;11.55;;
69894;SDS011;57172;52.034;5.090;2022-12-18T14:59:12;25.73;;;11.52;;
69894;SDS011;57172;52.034;5.090;2022-12-18T15:06:50;23.10;;;10.07;;
69894;SDS011;57172;52.034;5.090;2022-12-18T15:09:30;25.17;;;11.10;;
69894;SDS011;57172;52.034;5.090;2022-12-18T15:11:58;24.00;;;11.30;;
69894;SDS011;57172;52.034;5.090;2022-12-18T15:14:33;26.75;;;11.77;;
69894;SDS011;57172;52.034;5.090;2022-12-18T15:17:04;24.58;;;11.40;;
69894;SDS011;57172;52.034;5.090;2022-12-18T15:19:46;22.00;;;10.77;;
69894;SDS011;57172;52.034;5.090;2022-12-18T15:22:17;26.88;;;12.80;;
69894;SDS011;57172;52.034;5.090;2022-12-18T15:24:50;25.13;;;11.15;;
69894;SDS011;57172;52.034;5.090;2022-12-18T15:27:21;28.88;;;12.68;;
69894;SDS011;57172;52.034;5.090;2022-12-18T15:32:34;24.67;;;10.30;;
69894;SDS011;57172;52.034;5.090;2022-12-18T15:37:35;26.77;;;12.10;;
69894;SDS011;57172;52.034;5.090;2022-12-18T15:40:04;25.88;;;11.32;;
69894;SDS011;57172;52.034;5.090;2022-12-18T15:42:31;26.13;;;12.25;;
69894;SDS011;57172;52.034;5.090;2022-12-18T15:45:17;29.13;;;13.50;;
69894;SDS011;57172;52.034;5.090;2022-12-18T15:47:45;21.90;;;10.38;;
69894;SDS011;57172;52.034;5.090;2022-12-18T15:50:12;25.00;;;11.15;;
69894;SDS011;57172;52.034;5.090;2022-12-18T15:52:39;24.17;;;11.05;;
69894;SDS011;57172;52.034;5.090;2022-12-18T15:55:12;21.58;;;10.07;;
69894;SDS011;57172;52.034;5.090;2022-12-18T15:58:08;26.83;;;12.33;;
69894;SDS011;57172;52.034;5.090;2022-12-18T16:00:39;24.98;;;12.05;;
69894;SDS011;57172;52.034;5.090;2022-12-18T16:03:06;19.23;;;7.85;;
69894;SDS011;57172;52.034;5.090;2022-12-18T16:05:35;24.98;;;12.40;;
69894;SDS011;57172;52.034;5.090;2022-12-18T16:08:02;24.52;;;10.70;;
69894;SDS011;57172;52.034;5.090;2022-12-18T16:10:29;27.50;;;12.37;;
69894;SDS011;57172;52.034;5.090;2022-12-18T16:12:56;27.40;;;12.68;;
69894;SDS011;57172;52.034;5.090;2022-12-18T16:15:23;27.33;;;11.98;;
69894;SDS011;57172;52.034;5.090;2022-12-18T16:17:50;28.35;;;12.80;;
69894;SDS011;57172;52.034;5.090;2022-12-18T16:20:19;24.35;;;11.02;;
69894;SDS011;57172;52.034;5.090;2022-12-18T16:22:47;31.83;;;13.03;;
69894;SDS011;57172;52.034;5.090;2022-12-18T16:27:44;30.50;;;13.18;;
69894;SDS011;57172;52.034;5.090;2022-12-18T16:30:14;20.67;;;9.30;;
69894;SDS011;57172;52.034;5.090;2022-12-18T16:32:42;28.85;;;12.95;;